createdAt,value
2023-02-27T00:00:23.648Z,412
2023-02-27T00:01:22.701Z,413
2023-02-27T00:02:22.905Z,411
2023-02-27T00:03:22.890Z,416
2023-02-27T00:04:22.125Z,417
2023-02-27T00:05:22.444Z,416
2023-02-27T00:06:22.321Z,417
2023-02-27T00:07:22.852Z,428
2023-02-27T00:08:21.883Z,420
2023-02-27T00:09:22.075Z,410
2023-02-27T00:10:23.306Z,411
2023-02-27T00:11:22.378Z,414
2023-02-27T00:12:22.742Z,417
2023-02-27T00:13:22.075Z,422
2023-02-27T00:15:22.594Z,414
2023-02-27T00:16:22.108Z,416
2023-02-27T00:17:22.239Z,421
2023-02-27T00:18:22.316Z,417
2023-02-27T00:19:22.385Z,409
2023-02-27T00:20:22.103Z,411
2023-02-27T00:21:23.044Z,418
2023-02-27T00:22:22.319Z,415
2023-02-27T00:23:21.800Z,408
2023-02-27T00:24:21.753Z,410
2023-02-27T00:25:41.419Z,408
2023-02-27T00:26:22.662Z,414
2023-02-27T00:27:22.521Z,426
2023-02-27T00:28:22.492Z,420
2023-02-27T00:29:21.900Z,419
2023-02-27T00:30:23.193Z,411
2023-02-27T00:31:22.455Z,413
2023-02-27T00:32:22.739Z,420
2023-02-27T00:33:21.804Z,417
2023-02-27T00:34:22.490Z,424
2023-02-27T00:35:22.277Z,418
2023-02-27T00:36:22.542Z,413
2023-02-27T00:37:22.254Z,409
2023-02-27T00:38:21.888Z,422
2023-02-27T00:39:22.709Z,434
2023-02-27T00:40:22.445Z,425
2023-02-27T00:41:22.681Z,419
2023-02-27T00:42:22.886Z,420
2023-02-27T00:43:22.512Z,412
2023-02-27T00:44:21.998Z,419
2023-02-27T00:45:21.979Z,412
2023-02-27T00:46:22.807Z,420
2023-02-27T00:48:22.273Z,423
2023-02-27T00:49:21.994Z,414
2023-02-27T00:50:22.972Z,401
2023-02-27T00:51:22.542Z,402
2023-02-27T00:52:22.638Z,410
2023-02-27T00:53:22.464Z,409
2023-02-27T00:54:22.590Z,420
2023-02-27T00:55:22.665Z,421
2023-02-27T00:56:23.108Z,417
2023-02-27T00:57:21.748Z,415
2023-02-27T00:58:21.645Z,412
2023-02-27T00:59:21.755Z,405
2023-02-27T01:00:24.564Z,412
2023-02-27T01:01:26.423Z,415
2023-02-27T01:02:23.012Z,405
2023-02-27T01:03:21.951Z,410
2023-02-27T01:04:21.670Z,411
2023-02-27T01:05:22.690Z,407
2023-02-27T01:06:22.560Z,408
2023-02-27T01:07:22.762Z,417
2023-02-27T01:08:22.324Z,418
2023-02-27T01:09:22.068Z,412
2023-02-27T01:10:22.985Z,413
2023-02-27T01:11:21.996Z,418
2023-02-27T01:12:22.388Z,406
2023-02-27T01:13:22.115Z,399
2023-02-27T01:14:21.458Z,398
2023-02-27T01:15:22.959Z,406
2023-02-27T01:16:21.491Z,409
2023-02-27T01:17:22.544Z,407
2023-02-27T01:19:22.092Z,412
2023-02-27T01:21:22.522Z,416
2023-02-27T01:22:22.649Z,411
2023-02-27T01:23:22.405Z,405
2023-02-27T01:25:22.663Z,407
2023-02-27T01:26:22.200Z,410
2023-02-27T01:27:22.311Z,412
2023-02-27T01:28:22.304Z,411
2023-02-27T01:29:21.933Z,409
2023-02-27T01:30:22.253Z,408
2023-02-27T01:31:21.786Z,406
2023-02-27T01:32:23.008Z,405
2023-02-27T01:33:21.832Z,408
2023-02-27T01:34:22.285Z,413
2023-02-27T01:35:22.646Z,419
2023-02-27T01:36:22.307Z,420
2023-02-27T01:37:22.532Z,419
2023-02-27T01:38:22.075Z,423
2023-02-27T01:39:22.251Z,426
2023-02-27T01:41:21.779Z,419
2023-02-27T01:42:22.373Z,417
2023-02-27T01:43:21.812Z,423
2023-02-27T01:44:21.981Z,425
2023-02-27T01:45:22.186Z,421
2023-02-27T01:46:23.045Z,420
2023-02-27T01:47:22.230Z,421
2023-02-27T01:48:22.534Z,414
2023-02-27T01:49:22.054Z,415
2023-02-27T01:50:22.905Z,422
2023-02-27T01:51:22.627Z,421
2023-02-27T01:52:22.364Z,424
2023-02-27T01:53:22.021Z,426
2023-02-27T01:55:22.308Z,438
2023-02-27T01:56:21.664Z,429
2023-02-27T01:57:22.423Z,416
2023-02-27T01:58:22.042Z,409
2023-02-27T01:59:22.497Z,411
2023-02-27T02:00:23.035Z,414
2023-02-27T02:01:23.073Z,418
2023-02-27T02:02:22.255Z,417
2023-02-27T02:03:22.143Z,411
2023-02-27T02:04:26.842Z,406
2023-02-27T02:05:22.928Z,412
2023-02-27T02:06:22.303Z,417
2023-02-27T02:07:22.273Z,425
2023-02-27T02:08:22.111Z,422
2023-02-27T02:09:21.862Z,416
2023-02-27T02:10:22.173Z,406
2023-02-27T02:11:22.264Z,410
2023-02-27T02:12:22.247Z,417
2023-02-27T02:13:21.874Z,425
2023-02-27T02:14:22.241Z,421
2023-02-27T02:15:23.101Z,419
2023-02-27T02:16:22.476Z,422
2023-02-27T02:17:22.090Z,419
2023-02-27T02:18:22.493Z,418
2023-02-27T02:19:21.664Z,416
2023-02-27T02:21:22.286Z,411
2023-02-27T02:22:22.477Z,413
2023-02-27T02:23:21.950Z,417
2023-02-27T02:24:22.035Z,425
2023-02-27T02:26:36.068Z,419
2023-02-27T02:27:22.641Z,417
2023-02-27T02:28:35.893Z,413
2023-02-27T02:29:22.182Z,417
2023-02-27T02:30:22.393Z,422
2023-02-27T02:31:22.372Z,419
2023-02-27T02:32:22.412Z,428
2023-02-27T02:33:22.283Z,425
2023-02-27T02:34:22.775Z,409
2023-02-27T02:35:22.317Z,417
2023-02-27T02:36:22.247Z,422
2023-02-27T02:37:21.637Z,424
2023-02-27T02:38:22.058Z,423
2023-02-27T02:39:22.122Z,421
2023-02-27T02:40:22.483Z,415
2023-02-27T02:41:22.605Z,421
2023-02-27T02:42:21.810Z,414
2023-02-27T02:43:21.833Z,416
2023-02-27T02:44:22.244Z,420
2023-02-27T02:46:22.306Z,423
2023-02-27T02:47:22.520Z,422
2023-02-27T02:48:22.047Z,429
2023-02-27T02:49:22.752Z,430
2023-02-27T02:50:22.837Z,427
2023-02-27T02:51:22.403Z,419
2023-02-27T02:52:23.061Z,418
2023-02-27T02:53:22.105Z,423
2023-02-27T02:54:22.643Z,421
2023-02-27T02:55:22.039Z,415
2023-02-27T02:56:22.675Z,417
2023-02-27T02:57:22.229Z,421
2023-02-27T02:59:23.038Z,425
2023-02-27T03:00:24.378Z,417
2023-02-27T03:01:22.588Z,420
2023-02-27T03:02:22.825Z,415
2023-02-27T03:03:22.401Z,418
2023-02-27T03:04:21.778Z,419
2023-02-27T03:06:22.070Z,417
2023-02-27T03:07:22.487Z,414
2023-02-27T03:08:22.052Z,413
2023-02-27T03:09:22.575Z,406
2023-02-27T03:10:22.817Z,413
2023-02-27T03:11:22.278Z,416
2023-02-27T03:12:23.094Z,417
2023-02-27T03:13:21.471Z,425
2023-02-27T03:14:22.116Z,437
2023-02-27T03:15:21.811Z,432
2023-02-27T03:16:22.651Z,421
2023-02-27T03:17:22.508Z,431
2023-02-27T03:18:22.763Z,433
2023-02-27T03:19:22.072Z,424
2023-02-27T03:20:22.079Z,430
2023-02-27T03:21:22.711Z,427
2023-02-27T03:22:21.426Z,433
2023-02-27T03:23:22.232Z,423
2023-02-27T03:24:21.636Z,419
2023-02-27T03:25:21.845Z,425
2023-02-27T03:26:21.467Z,436
2023-02-27T03:27:21.668Z,435
2023-02-27T03:28:22.200Z,432
2023-02-27T03:29:22.143Z,436
2023-02-27T03:30:22.272Z,432
2023-02-27T03:31:21.843Z,429
2023-02-27T03:32:22.518Z,427
2023-02-27T03:33:21.784Z,423
2023-02-27T03:34:22.003Z,426
2023-02-27T03:35:22.086Z,429
2023-02-27T03:36:23.214Z,411
2023-02-27T03:37:22.156Z,416
2023-02-27T03:38:21.811Z,425
2023-02-27T03:39:22.532Z,413
2023-02-27T03:40:22.638Z,424
2023-02-27T03:42:22.348Z,418
2023-02-27T03:43:21.984Z,420
2023-02-27T03:44:22.450Z,418
2023-02-27T03:45:22.716Z,419
2023-02-27T03:46:21.991Z,423
2023-02-27T03:47:22.474Z,418
2023-02-27T03:48:21.794Z,423
2023-02-27T03:49:21.673Z,424
2023-02-27T03:50:22.434Z,422
2023-02-27T03:51:22.466Z,424
2023-02-27T03:52:22.998Z,432
2023-02-27T03:53:21.556Z,428
2023-02-27T03:54:22.394Z,415
2023-02-27T03:55:22.215Z,414
2023-02-27T03:56:21.987Z,409
2023-02-27T03:57:22.243Z,415
2023-02-27T03:58:21.948Z,412
2023-02-27T03:59:22.021Z,409
2023-02-27T04:00:23.496Z,405
2023-02-27T04:01:23.037Z,412
2023-02-27T04:02:23.093Z,419
2023-02-27T04:03:22.416Z,411
2023-02-27T04:04:22.533Z,418
2023-02-27T04:05:22.100Z,416
2023-02-27T04:06:22.155Z,421
2023-02-27T04:07:22.124Z,427
2023-02-27T04:08:22.242Z,423
2023-02-27T04:10:23.142Z,410
2023-02-27T04:11:23.118Z,422
2023-02-27T04:12:23.019Z,420
2023-02-27T04:13:22.357Z,419
2023-02-27T04:14:22.817Z,415
2023-02-27T04:15:22.761Z,412
2023-02-27T04:16:22.303Z,420
2023-02-27T04:17:22.715Z,424
2023-02-27T04:18:22.458Z,428
2023-02-27T04:19:22.577Z,424
2023-02-27T04:20:22.769Z,419
2023-02-27T04:21:22.327Z,426
2023-02-27T04:22:21.832Z,428
2023-02-27T04:23:21.533Z,417
2023-02-27T04:25:21.963Z,428
2023-02-27T04:26:22.247Z,429
2023-02-27T04:27:22.115Z,416
2023-02-27T04:28:22.673Z,427
2023-02-27T04:29:22.219Z,417
2023-02-27T04:31:23.150Z,423
2023-02-27T04:33:22.348Z,428
2023-02-27T04:35:22.582Z,417
2023-02-27T04:36:22.221Z,421
2023-02-27T04:37:22.391Z,423
2023-02-27T04:38:22.429Z,428
2023-02-27T04:39:27.526Z,418
2023-02-27T04:40:23.287Z,419
2023-02-27T04:41:27.594Z,413
2023-02-27T04:42:22.894Z,411
2023-02-27T04:43:22.035Z,414
2023-02-27T04:44:22.488Z,427
2023-02-27T04:46:21.993Z,418
2023-02-27T04:47:22.938Z,411
2023-02-27T04:48:22.186Z,414
2023-02-27T04:49:23.036Z,419
2023-02-27T04:50:23.153Z,417
2023-02-27T04:51:22.346Z,415
2023-02-27T04:53:37.114Z,414
2023-02-27T04:54:22.199Z,431
2023-02-27T04:55:22.767Z,423
2023-02-27T04:56:23.112Z,415
2023-02-27T04:57:22.428Z,411
2023-02-27T04:58:24.394Z,412
2023-02-27T05:00:24.343Z,411
2023-02-27T05:01:23.266Z,418
2023-02-27T05:02:23.298Z,423
2023-02-27T05:03:22.527Z,425
2023-02-27T05:04:22.913Z,427
2023-02-27T05:05:23.175Z,417
2023-02-27T05:06:22.825Z,418
2023-02-27T05:07:41.679Z,420
2023-02-27T05:08:22.439Z,422
2023-02-27T05:09:22.426Z,425
2023-02-27T05:10:24.056Z,419
2023-02-27T05:11:41.606Z,433
2023-02-27T05:12:22.648Z,428
2023-02-27T05:13:41.803Z,427
2023-02-27T05:14:22.211Z,428
2023-02-27T05:15:42.428Z,430
2023-02-27T05:16:23.222Z,432
2023-02-27T05:17:22.424Z,441
2023-02-27T05:18:22.678Z,429
2023-02-27T05:19:44.195Z,424
2023-02-27T05:20:22.996Z,425
2023-02-27T05:21:22.427Z,426
2023-02-27T05:22:23.609Z,427
2023-02-27T05:23:22.159Z,433
2023-02-27T05:24:22.593Z,434
2023-02-27T05:25:23.007Z,435
2023-02-27T05:26:22.794Z,438
2023-02-27T05:28:24.589Z,435
2023-02-27T05:29:22.555Z,428
2023-02-27T05:30:22.960Z,426
2023-02-27T05:32:24.811Z,428
2023-02-27T05:33:22.821Z,440
2023-02-27T05:34:23.025Z,442
2023-02-27T05:35:23.005Z,439
2023-02-27T05:36:22.759Z,437
2023-02-27T05:38:23.112Z,439
2023-02-27T05:39:22.511Z,443
2023-02-27T05:40:23.280Z,446
2023-02-27T05:41:23.316Z,443
2023-02-27T05:42:23.549Z,446
2023-02-27T05:43:22.915Z,447
2023-02-27T05:44:22.554Z,439
2023-02-27T05:45:23.271Z,428
2023-02-27T05:46:22.578Z,431
2023-02-27T05:47:22.568Z,441
2023-02-27T05:48:22.679Z,440
2023-02-27T05:49:22.243Z,443
2023-02-27T05:51:22.779Z,437
2023-02-27T05:52:23.047Z,433
2023-02-27T05:53:22.643Z,439
2023-02-27T05:54:22.551Z,431
2023-02-27T05:55:23.208Z,436
2023-02-27T05:56:22.751Z,443
2023-02-27T05:57:23.033Z,444
2023-02-27T05:58:22.438Z,446
2023-02-27T05:59:22.727Z,441
2023-02-27T06:00:23.826Z,433
2023-02-27T06:01:22.878Z,427
2023-02-27T06:02:23.225Z,435
2023-02-27T06:03:23.941Z,439
2023-02-27T06:04:22.944Z,435
2023-02-27T06:05:23.268Z,436
2023-02-27T06:06:23.551Z,432
2023-02-27T06:07:23.279Z,424
2023-02-27T06:08:22.912Z,434
2023-02-27T06:09:23.412Z,429
2023-02-27T06:10:23.252Z,430
2023-02-27T06:11:23.701Z,441
2023-02-27T06:12:23.877Z,436
2023-02-27T06:13:23.782Z,434
2023-02-27T06:14:23.839Z,418
2023-02-27T06:15:23.197Z,423
2023-02-27T06:16:23.145Z,424
2023-02-27T06:17:22.855Z,433
2023-02-27T06:18:23.396Z,429
2023-02-27T06:19:23.895Z,423
2023-02-27T06:21:23.263Z,417
2023-02-27T06:22:22.975Z,415
2023-02-27T06:23:23.065Z,425
2023-02-27T06:24:23.143Z,433
2023-02-27T06:25:23.574Z,426
2023-02-27T06:26:23.366Z,429
2023-02-27T06:27:23.339Z,430
2023-02-27T06:28:23.865Z,422
2023-02-27T06:29:23.202Z,433
2023-02-27T06:30:24.159Z,432
2023-02-27T06:32:22.945Z,438
2023-02-27T06:34:23.196Z,440
2023-02-27T06:35:23.266Z,436
2023-02-27T06:36:23.134Z,423
2023-02-27T06:37:22.652Z,411
2023-02-27T06:38:22.979Z,433
2023-02-27T06:39:23.932Z,442
2023-02-27T06:40:22.980Z,438
2023-02-27T06:41:23.084Z,426
2023-02-27T06:42:22.651Z,421
2023-02-27T06:43:22.480Z,425
2023-02-27T06:44:22.334Z,433
2023-02-27T06:45:23.515Z,440
2023-02-27T06:46:22.436Z,435
2023-02-27T06:47:23.297Z,427
2023-02-27T06:48:22.925Z,425
2023-02-27T06:49:22.660Z,436
2023-02-27T06:50:23.766Z,447
2023-02-27T06:51:23.254Z,450
2023-02-27T06:52:22.727Z,457
2023-02-27T06:53:22.431Z,462
2023-02-27T06:54:22.401Z,449
2023-02-27T06:55:23.043Z,444
2023-02-27T06:56:22.629Z,436
2023-02-27T06:57:23.398Z,435
2023-02-27T06:58:28.343Z,447
2023-02-27T07:01:24.107Z,448
2023-02-27T07:02:28.023Z,435
2023-02-27T07:03:23.471Z,434
2023-02-27T07:04:23.450Z,433
2023-02-27T07:05:24.859Z,447
2023-02-27T07:07:33.199Z,446
2023-02-27T07:07:33.907Z,439
2023-02-27T07:08:23.992Z,440
2023-02-27T07:09:23.254Z,442
2023-02-27T07:11:23.814Z,444
2023-02-27T07:12:23.237Z,457
2023-02-27T07:13:23.485Z,459
2023-02-27T07:14:23.346Z,450
2023-02-27T07:15:24.603Z,446
2023-02-27T07:16:23.241Z,438
2023-02-27T07:17:22.840Z,435
2023-02-27T07:18:23.233Z,446
2023-02-27T07:19:22.834Z,455
2023-02-27T07:20:23.397Z,441
2023-02-27T07:21:23.585Z,440
2023-02-27T07:22:23.192Z,448
2023-02-27T07:23:22.673Z,454
2023-02-27T07:24:23.014Z,450
2023-02-27T07:25:22.988Z,441
2023-02-27T07:26:23.552Z,428
2023-02-27T07:27:23.018Z,431
2023-02-27T07:28:22.693Z,429
2023-02-27T07:29:23.428Z,438
2023-02-27T07:30:23.599Z,434
2023-02-27T07:31:23.158Z,431
2023-02-27T07:33:23.220Z,437
2023-02-27T07:34:22.886Z,436
2023-02-27T07:35:24.082Z,441
2023-02-27T07:36:42.258Z,432
2023-02-27T07:37:23.205Z,427
2023-02-27T07:38:22.733Z,431
2023-02-27T07:39:23.633Z,428
2023-02-27T07:40:23.289Z,425
2023-02-27T07:41:30.428Z,432
2023-02-27T07:42:23.394Z,434
2023-02-27T07:43:23.177Z,433
2023-02-27T07:44:23.778Z,429
2023-02-27T07:45:23.951Z,423
2023-02-27T07:46:23.140Z,431
2023-02-27T07:47:23.513Z,415
2023-02-27T07:48:22.959Z,410
2023-02-27T07:49:23.102Z,418
2023-02-27T07:50:23.341Z,419
2023-02-27T07:51:23.067Z,408
2023-02-27T07:52:23.816Z,415
2023-02-27T07:53:23.170Z,422
2023-02-27T07:54:23.769Z,417
2023-02-27T07:55:23.278Z,418
2023-02-27T07:56:23.001Z,425
2023-02-27T07:57:23.223Z,418
2023-02-27T07:58:23.480Z,427
2023-02-27T07:59:23.805Z,423
2023-02-27T08:01:27.188Z,424
2023-02-27T08:02:23.438Z,422
2023-02-27T08:03:23.193Z,417
2023-02-27T08:04:23.154Z,420
2023-02-27T08:05:23.102Z,407
2023-02-27T08:06:22.656Z,404
2023-02-27T08:09:23.561Z,417
2023-02-27T08:10:23.425Z,418
2023-02-27T08:11:22.867Z,411
2023-02-27T08:13:55.673Z,415
2023-02-27T08:14:34.194Z,408
2023-02-27T08:15:23.475Z,409
2023-02-27T08:16:22.908Z,407
2023-02-27T08:17:23.402Z,416
2023-02-27T08:18:23.165Z,418
2023-02-27T08:19:23.314Z,414
2023-02-27T08:20:23.135Z,418
2023-02-27T08:21:22.706Z,424
2023-02-27T08:22:23.334Z,416
2023-02-27T08:23:22.964Z,426
2023-02-27T08:24:23.336Z,422
2023-02-27T08:26:23.123Z,421
2023-02-27T08:27:23.601Z,410
2023-02-27T08:28:22.817Z,409
2023-02-27T08:29:23.879Z,411
2023-02-27T08:31:23.405Z,402
2023-02-27T08:32:23.890Z,395
2023-02-27T08:33:23.528Z,400
2023-02-27T08:34:23.708Z,405
2023-02-27T08:35:23.952Z,408
2023-02-27T08:36:23.264Z,405
2023-02-27T08:37:23.296Z,411
2023-02-27T08:38:26.013Z,404
2023-02-27T08:39:22.758Z,407
2023-02-27T08:40:23.912Z,404
2023-02-27T08:41:23.397Z,400
2023-02-27T08:42:23.699Z,406
2023-02-27T08:43:23.183Z,401
2023-02-27T08:44:22.951Z,393
2023-02-27T08:45:23.476Z,397
2023-02-27T08:46:22.981Z,393
2023-02-27T08:47:23.222Z,402
2023-02-27T08:48:23.643Z,403
2023-02-27T08:49:22.309Z,399
2023-02-27T08:50:24.276Z,389
2023-02-27T08:52:24.936Z,393
2023-02-27T08:53:23.412Z,383
2023-02-27T08:54:23.008Z,390
2023-02-27T08:55:22.714Z,395
2023-02-27T08:56:23.131Z,399
2023-02-27T08:57:23.506Z,401
2023-02-27T08:58:22.638Z,407
2023-02-27T08:59:23.445Z,400
2023-02-27T09:00:24.880Z,392
2023-02-27T09:01:23.394Z,391
2023-02-27T09:02:23.619Z,379
2023-02-27T09:03:23.602Z,375
2023-02-27T09:04:24.119Z,387
2023-02-27T09:05:22.778Z,396
2023-02-27T09:06:25.088Z,392
2023-02-27T09:07:23.577Z,381
2023-02-27T09:08:23.247Z,379
2023-02-27T09:09:23.693Z,384
2023-02-27T09:10:23.210Z,394
2023-02-27T09:11:23.183Z,392
2023-02-27T09:12:22.990Z,393
2023-02-27T09:13:22.694Z,385
2023-02-27T09:14:23.046Z,399
2023-02-27T09:16:22.425Z,392
2023-02-27T09:17:22.184Z,380
2023-02-27T09:18:22.490Z,375
2023-02-27T09:19:22.544Z,381
2023-02-27T09:20:22.599Z,389
2023-02-27T09:21:22.984Z,388
2023-02-27T09:22:22.527Z,378
2023-02-27T09:23:23.443Z,383
2023-02-27T09:24:23.309Z,379
2023-02-27T09:25:22.854Z,380
2023-02-27T09:26:35.726Z,383
2023-02-27T09:27:23.052Z,389
2023-02-27T09:29:22.602Z,390
2023-02-27T09:30:22.550Z,387
2023-02-27T09:32:22.825Z,382
2023-02-27T09:33:23.291Z,377
2023-02-27T09:34:22.666Z,383
2023-02-27T09:35:23.733Z,373
2023-02-27T09:37:23.109Z,381
2023-02-27T09:38:23.272Z,375
2023-02-27T09:40:23.423Z,370
2023-02-27T09:41:22.434Z,362
2023-02-27T09:42:23.402Z,361
2023-02-27T09:43:22.847Z,372
2023-02-27T09:44:33.441Z,377
2023-02-27T09:45:22.819Z,378
2023-02-27T09:46:22.482Z,372
2023-02-27T09:47:23.065Z,385
2023-02-27T09:48:22.533Z,379
2023-02-27T09:49:22.524Z,373
2023-02-27T09:50:23.228Z,372
2023-02-27T09:51:22.763Z,377
2023-02-27T09:53:22.588Z,370
2023-02-27T09:55:23.135Z,368
2023-02-27T09:56:23.040Z,371
2023-02-27T09:57:23.398Z,376
2023-02-27T09:58:22.402Z,390
2023-02-27T09:59:23.471Z,392
2023-02-27T10:00:24.492Z,393
2023-02-27T10:01:23.242Z,381
2023-02-27T10:02:22.896Z,379
2023-02-27T10:03:22.754Z,371
2023-02-27T10:04:23.532Z,380
2023-02-27T10:05:23.183Z,381
2023-02-27T10:07:42.220Z,373
2023-02-27T10:08:22.781Z,372
2023-02-27T10:09:23.155Z,370
2023-02-27T10:10:23.135Z,373
2023-02-27T10:11:23.488Z,377
2023-02-27T10:12:23.428Z,386
2023-02-27T10:13:23.440Z,380
2023-02-27T10:14:22.901Z,392
2023-02-27T10:15:23.569Z,388
2023-02-27T10:16:23.629Z,380
2023-02-27T10:17:23.136Z,382
2023-02-27T10:18:27.643Z,383
2023-02-27T10:19:22.643Z,386
2023-02-27T10:20:22.622Z,375
2023-02-27T10:22:22.675Z,372
2023-02-27T10:23:23.518Z,375
2023-02-27T10:24:22.556Z,376
2023-02-27T10:26:24.120Z,375
2023-02-27T10:27:23.057Z,373
2023-02-27T10:28:23.081Z,381
2023-02-27T10:30:29.236Z,382
2023-02-27T10:31:22.822Z,376
2023-02-27T10:32:22.777Z,377
2023-02-27T10:33:23.222Z,380
2023-02-27T10:34:22.862Z,376
2023-02-27T10:35:23.054Z,372
2023-02-27T10:36:32.951Z,376
2023-02-27T10:37:23.257Z,387
2023-02-27T10:38:23.255Z,384
2023-02-27T10:39:22.289Z,389
2023-02-27T10:40:22.898Z,375
2023-02-27T10:41:23.449Z,372
2023-02-27T10:42:22.549Z,376
2023-02-27T10:43:22.931Z,378
2023-02-27T10:44:22.559Z,375
2023-02-27T10:46:22.150Z,382
2023-02-27T10:47:22.988Z,377
2023-02-27T10:48:23.013Z,369
2023-02-27T10:49:22.661Z,381
2023-02-27T10:50:23.945Z,375
2023-02-27T10:51:22.703Z,372
2023-02-27T10:52:23.753Z,370
2023-02-27T10:53:22.832Z,367
2023-02-27T10:54:22.657Z,372
2023-02-27T10:55:23.336Z,374
2023-02-27T10:56:22.949Z,376
2023-02-27T10:57:23.154Z,370
2023-02-27T10:58:23.242Z,377
2023-02-27T10:59:23.331Z,383
2023-02-27T11:00:26.023Z,381
2023-02-27T11:01:23.469Z,387
2023-02-27T11:02:23.772Z,385
2023-02-27T11:04:22.924Z,383
2023-02-27T11:05:22.773Z,376
2023-02-27T11:06:23.281Z,382
2023-02-27T11:07:22.113Z,375
2023-02-27T11:08:22.574Z,374
2023-02-27T11:10:23.110Z,371
2023-02-27T11:11:22.322Z,375
2023-02-27T11:12:22.501Z,367
2023-02-27T11:13:22.562Z,373
2023-02-27T11:14:22.684Z,381
2023-02-27T11:15:22.996Z,371
2023-02-27T11:16:23.207Z,381
2023-02-27T11:17:23.330Z,388
2023-02-27T11:19:23.402Z,383
2023-02-27T11:20:23.426Z,375
2023-02-27T11:21:22.884Z,376
2023-02-27T11:22:23.223Z,380
2023-02-27T11:24:22.501Z,372
2023-02-27T11:25:23.211Z,370
2023-02-27T11:26:22.248Z,381
2023-02-27T11:27:23.286Z,377
2023-02-27T11:28:23.360Z,370
2023-02-27T11:29:23.308Z,373
2023-02-27T11:30:26.442Z,377
2023-02-27T11:31:22.896Z,380
2023-02-27T11:32:24.148Z,379
2023-02-27T11:33:22.877Z,374
2023-02-27T11:34:23.614Z,383
2023-02-27T11:35:22.887Z,379
2023-02-27T11:37:23.268Z,380
2023-02-27T11:38:23.529Z,377
2023-02-27T11:39:23.248Z,376
2023-02-27T11:40:22.801Z,379
2023-02-27T11:41:23.690Z,375
2023-02-27T11:42:23.220Z,371
2023-02-27T11:43:22.432Z,374
2023-02-27T11:44:34.040Z,383
2023-02-27T11:46:04.540Z,368
2023-02-27T11:46:41.181Z,375
2023-02-27T11:48:22.880Z,382
2023-02-27T11:49:22.747Z,381
2023-02-27T11:50:28.105Z,380
2023-02-27T11:51:23.095Z,365
2023-02-27T11:52:27.852Z,367
2023-02-27T11:54:27.848Z,366
2023-02-27T11:55:23.546Z,362
2023-02-27T11:56:22.628Z,369
2023-02-27T11:57:22.568Z,374
2023-02-27T11:58:22.594Z,383
2023-02-27T11:59:22.882Z,373
2023-02-27T12:00:24.361Z,366
2023-02-27T12:01:22.849Z,368
2023-02-27T12:02:30.885Z,370
2023-02-27T12:03:23.139Z,367
2023-02-27T12:04:31.534Z,363
2023-02-27T12:05:23.008Z,373
2023-02-27T12:06:23.115Z,368
2023-02-27T12:07:23.285Z,365
2023-02-27T12:08:22.850Z,361
2023-02-27T12:09:22.799Z,360
2023-02-27T12:10:23.393Z,362
2023-02-27T12:11:23.046Z,364
2023-02-27T12:13:23.171Z,361
2023-02-27T12:14:23.023Z,350
2023-02-27T12:16:36.854Z,356
2023-02-27T12:17:23.190Z,360
2023-02-27T12:18:22.759Z,370
2023-02-27T12:19:22.514Z,366
2023-02-27T12:20:23.260Z,368
2023-02-27T12:21:22.675Z,365
2023-02-27T12:22:22.814Z,361
2023-02-27T12:23:23.008Z,367
2023-02-27T12:24:23.156Z,380
2023-02-27T12:25:23.013Z,382
2023-02-27T12:26:22.730Z,368
2023-02-27T12:27:23.791Z,362
2023-02-27T12:28:22.319Z,360
2023-02-27T12:29:22.801Z,367
2023-02-27T12:30:22.777Z,357
2023-02-27T12:33:22.408Z,366
2023-02-27T12:34:23.581Z,368
2023-02-27T12:35:22.842Z,379
2023-02-27T12:36:23.348Z,373
2023-02-27T12:37:22.800Z,371
2023-02-27T12:38:23.309Z,364
2023-02-27T12:39:23.002Z,365
2023-02-27T12:40:23.253Z,366
2023-02-27T12:41:23.620Z,363
2023-02-27T12:42:22.983Z,368
2023-02-27T12:43:22.904Z,371
2023-02-27T12:44:22.208Z,373
2023-02-27T12:45:23.062Z,370
2023-02-27T12:47:22.614Z,354
2023-02-27T12:48:22.709Z,365
2023-02-27T12:49:22.572Z,360
2023-02-27T12:50:22.993Z,364
2023-02-27T12:51:23.661Z,365
2023-02-27T12:52:23.148Z,362
2023-02-27T12:53:22.856Z,365
2023-02-27T12:55:23.139Z,366
2023-02-27T12:56:24.018Z,364
2023-02-27T12:57:23.025Z,360
2023-02-27T12:58:22.691Z,365
2023-02-27T12:59:22.771Z,371
2023-02-27T13:00:25.589Z,364
2023-02-27T13:02:23.064Z,360
2023-02-27T13:03:22.423Z,351
2023-02-27T13:04:23.372Z,348
2023-02-27T13:07:27.214Z,368
2023-02-27T13:08:22.592Z,367
2023-02-27T13:09:22.974Z,365
2023-02-27T13:10:23.297Z,370
2023-02-27T13:11:22.702Z,376
2023-02-27T13:12:22.823Z,370
2023-02-27T13:13:23.322Z,367
2023-02-27T13:14:23.111Z,361
2023-02-27T13:15:24.501Z,360
2023-02-27T13:16:22.568Z,365
2023-02-27T13:17:23.940Z,370
2023-02-27T13:18:23.641Z,369
2023-02-27T13:19:23.599Z,368
2023-02-27T13:21:23.601Z,372
2023-02-27T13:22:23.582Z,366
2023-02-27T13:23:22.872Z,368
2023-02-27T13:24:24.293Z,363
2023-02-27T13:26:23.383Z,362
2023-02-27T13:28:23.219Z,358
2023-02-27T13:29:23.472Z,363
2023-02-27T13:30:23.527Z,375
2023-02-27T13:31:23.172Z,374
2023-02-27T13:32:30.007Z,367
2023-02-27T13:33:23.924Z,373
2023-02-27T13:34:22.935Z,359
2023-02-27T13:35:22.986Z,358
2023-02-27T13:36:24.444Z,362
2023-02-27T13:37:22.649Z,365
2023-02-27T13:38:23.074Z,364
2023-02-27T13:39:23.064Z,359
2023-02-27T13:41:22.785Z,365
2023-02-27T13:42:23.361Z,357
2023-02-27T13:43:22.631Z,359
2023-02-27T13:44:22.407Z,362
2023-02-27T13:45:23.128Z,358
2023-02-27T13:46:23.297Z,362
2023-02-27T13:47:22.952Z,361
2023-02-27T13:49:28.691Z,358
2023-02-27T13:50:23.827Z,363
2023-02-27T13:51:23.350Z,368
2023-02-27T13:52:22.853Z,363
2023-02-27T13:53:22.732Z,357
2023-02-27T13:55:23.585Z,350
2023-02-27T13:56:22.903Z,353
2023-02-27T13:57:22.953Z,361
2023-02-27T13:58:22.465Z,369
2023-02-27T13:59:22.889Z,355
2023-02-27T14:00:24.478Z,360
2023-02-27T14:01:23.304Z,370
2023-02-27T14:02:23.169Z,378
2023-02-27T14:03:22.396Z,370
2023-02-27T14:04:23.991Z,377
2023-02-27T14:06:22.960Z,371
2023-02-27T14:07:23.118Z,365
2023-02-27T14:08:22.758Z,366
2023-02-27T14:09:23.780Z,361
2023-02-27T14:10:23.014Z,362
2023-02-27T14:11:23.357Z,372
2023-02-27T14:12:24.706Z,376
2023-02-27T14:13:27.929Z,369
2023-02-27T14:14:23.187Z,364
2023-02-27T14:15:23.887Z,365
2023-02-27T14:16:23.800Z,360
2023-02-27T14:17:28.197Z,350
2023-02-27T14:19:22.962Z,346
2023-02-27T14:21:23.262Z,352
2023-02-27T14:22:23.150Z,359
2023-02-27T14:23:28.543Z,361
2023-02-27T14:24:22.881Z,366
2023-02-27T14:25:23.748Z,372
2023-02-27T14:26:22.914Z,368
2023-02-27T14:27:23.252Z,360
2023-02-27T14:28:23.246Z,365
2023-02-27T14:29:23.535Z,369
2023-02-27T14:30:23.569Z,367
2023-02-27T14:31:31.277Z,360
2023-02-27T14:32:23.230Z,363
2023-02-27T14:33:37.495Z,369
2023-02-27T14:34:23.189Z,364
2023-02-27T14:35:23.968Z,373
2023-02-27T14:36:23.046Z,375
2023-02-27T14:38:22.451Z,371
2023-02-27T14:39:23.294Z,378
2023-02-27T14:40:29.634Z,373
2023-02-27T14:41:23.142Z,378
2023-02-27T14:42:23.357Z,370
2023-02-27T14:43:23.626Z,366
2023-02-27T14:44:23.950Z,362
2023-02-27T14:45:37.349Z,357
2023-02-27T14:46:22.248Z,367
2023-02-27T14:47:22.676Z,364
2023-02-27T14:49:23.054Z,355
2023-02-27T14:50:22.455Z,362
2023-02-27T14:51:23.353Z,373
2023-02-27T14:52:22.824Z,378
2023-02-27T14:53:23.064Z,387
2023-02-27T14:54:22.974Z,388
2023-02-27T14:55:23.319Z,380
2023-02-27T14:56:23.731Z,375
2023-02-27T14:57:23.749Z,373
2023-02-27T14:58:23.546Z,364
2023-02-27T14:59:22.984Z,365
2023-02-27T15:00:24.449Z,372
2023-02-27T15:01:23.543Z,368
2023-02-27T15:02:23.871Z,365
2023-02-27T15:03:23.485Z,369
2023-02-27T15:04:24.150Z,368